Time;durP1;ratioP1;P1;durP2;ratioP2;P2;SDS_P1;SDS_P2;PMS_P1;PMS_P2;Temp;Humidity;BMP_temperature;BMP_pressure;BME280_temperature;BME280_humidity;BME280_pressure;Samples;Min_cycle;Max_cycle;Signal;HPM_P1;HPM_P2
2022/07/19 00:01:37;;;;;;;18.38;12.18;;;;;;;20.13;78.39;101730.69;4876242;29;20124;-72
2022/07/19 00:04:03;;;;;;;18.67;11.48;;;;;;;20.14;78.72;101735.03;4876085;29;20060;-72
2022/07/19 00:06:28;;;;;;;16.20;10.40;;;;;;;20.08;78.38;101723.25;4876037;29;20033;-72
2022/07/19 00:08:53;;;;;;;18.52;11.98;;;;;;;20.03;78.69;101727.75;4876095;29;20140;-72
2022/07/19 00:11:19;;;;;;;16.35;12.80;;;;;;;19.95;78.76;101726.22;4875910;29;20049;-72
2022/07/19 00:13:45;;;;;;;18.20;11.93;;;;;;;19.92;77.68;101726.72;4876021;29;20045;-72
2022/07/19 00:16:10;;;;;;;14.85;12.02;;;;;;;19.91;78.94;101730.47;4875835;29;20025;-72
2022/07/19 00:18:35;;;;;;;18.05;12.00;;;;;;;19.84;79.91;101722.47;4876175;29;20970;-72
2022/07/19 00:21:01;;;;;;;15.25;11.93;;;;;;;19.77;80.30;101723.66;4875908;29;20127;-72
2022/07/19 00:23:26;;;;;;;17.75;11.85;;;;;;;19.69;80.00;101730.25;4875177;29;20037;-72
2022/07/19 00:25:52;;;;;;;16.13;10.45;;;;;;;19.59;80.35;101714.56;4875836;29;20048;-72
2022/07/19 00:28:17;;;;;;;15.85;11.55;;;;;;;19.60;80.33;101720.81;4875680;29;20051;-71
2022/07/19 00:30:42;;;;;;;15.65;10.63;;;;;;;19.55;80.60;101726.94;4875933;29;20041;-71
2022/07/19 00:33:08;;;;;;;17.85;12.68;;;;;;;19.49;80.85;101717.88;4875673;29;20376;-71
2022/07/19 00:35:43;;;;;;;17.13;11.05;;;;;;;19.48;81.30;101716.22;4859280;29;20037;-72
2022/07/19 00:38:10;;;;;;;17.17;12.15;;;;;;;19.44;81.47;101697.97;4875639;29;20041;-72
2022/07/19 00:40:37;;;;;;;14.60;10.48;;;;;;;19.46;81.55;101714.81;4875726;29;20711;-72
2022/07/19 00:43:03;;;;;;;16.45;11.27;;;;;;;19.45;80.31;101716.69;4874542;29;20029;-72
2022/07/19 00:45:28;;;;;;;22.55;14.30;;;;;;;19.39;79.36;101703.28;4875007;29;20052;-69
2022/07/19 00:47:54;;;;;;;17.92;11.13;;;;;;;19.33;79.97;101704.22;4875646;29;20033;-69
2022/07/19 00:50:20;;;;;;;16.17;11.90;;;;;;;19.38;79.80;101715.97;4875526;29;20473;-69
2022/07/19 00:53:02;;;;;;;19.08;12.88;;;;;;;19.36;79.52;101701.88;4875576;29;20056;-69
2022/07/19 00:55:29;;;;;;;20.02;13.05;;;;;;;19.37;80.96;101710.81;4875610;29;20043;-69
2022/07/19 00:57:56;;;;;;;15.82;10.75;;;;;;;19.30;81.50;101708.22;4875311;29;20429;-69
2022/07/19 01:00:22;;;;;;;15.63;12.52;;;;;;;19.25;81.22;101703.50;4875510;29;20065;-69
2022/07/19 01:02:48;;;;;;;15.85;12.48;;;;;;;19.17;81.81;101693.03;4875407;29;20033;-69
2022/07/19 01:05:13;;;;;;;16.70;13.45;;;;;;;19.17;81.10;101698.44;4875398;29;20124;-69
2022/07/19 01:07:42;;;;;;;17.13;13.52;;;;;;;19.23;81.96;101699.38;4875177;29;20056;-69
2022/07/19 01:10:10;;;;;;;18.40;13.15;;;;;;;19.19;81.14;101693.63;4875402;29;20033;-69
2022/07/19 01:12:37;;;;;;;16.70;12.18;;;;;;;19.17;81.06;101695.72;4875505;29;20037;-69
2022/07/19 01:15:12;;;;;;;15.13;11.60;;;;;;;19.14;81.35;101698.09;4874483;29;20044;-69
2022/07/19 01:17:38;;;;;;;18.95;13.48;;;;;;;19.06;81.60;101691.13;4875864;29;20052;-69
2022/07/19 01:20:04;;;;;;;21.85;15.00;;;;;;;19.02;81.64;101693.50;4875935;29;20477;-69
2022/07/19 01:22:29;;;;;;;17.17;13.65;;;;;;;19.02;82.61;101698.03;4875203;29;20493;-69
2022/07/19 01:24:54;;;;;;;18.20;11.93;;;;;;;18.95;82.84;101703.56;4875067;29;20043;-69
2022/07/19 01:27:20;;;;;;;17.25;13.57;;;;;;;18.90;82.51;101708.03;4875047;29;20044;-69
2022/07/19 01:29:45;;;;;;;17.60;13.15;;;;;;;18.82;82.88;101699.19;4875182;29;20037;-69
2022/07/19 01:32:10;;;;;;;19.88;13.90;;;;;;;18.80;82.75;101704.00;4875239;29;20428;-69
2022/07/19 01:34:35;;;;;;;15.88;12.07;;;;;;;18.76;83.55;101699.31;4875134;29;20445;-69
2022/07/19 01:37:01;;;;;;;15.93;12.63;;;;;;;18.67;83.51;101703.34;4875409;29;20069;-69
2022/07/19 01:39:26;;;;;;;18.33;12.43;;;;;;;18.59;84.17;101697.19;4858487;29;20044;-69
2022/07/19 01:41:51;;;;;;;19.13;13.90;;;;;;;18.60;84.31;101704.28;4875202;29;20040;-69
2022/07/19 01:44:17;;;;;;;18.90;14.30;;;;;;;18.58;84.58;101710.94;4875031;29;20155;-69
2022/07/19 01:46:42;;;;;;;17.10;13.25;;;;;;;18.52;84.49;101710.00;4874634;29;20057;-69
2022/07/19 01:49:07;;;;;;;17.00;13.93;;;;;;;18.51;84.21;101702.09;4874840;29;20040;-69
2022/07/19 01:51:33;;;;;;;16.25;13.60;;;;;;;18.55;84.59;101706.84;4875094;29;20048;-69
2022/07/19 01:53:58;;;;;;;20.40;15.00;;;;;;;18.57;84.77;101707.41;4876942;29;20037;-69
2022/07/19 01:56:24;;;;;;;16.67;14.25;;;;;;;18.54;84.49;101702.47;4878409;29;20053;-69
2022/07/19 01:58:49;;;;;;;20.23;13.05;;;;;;;18.52;84.21;101706.44;4878197;29;20044;-69
2022/07/19 02:01:14;;;;;;;17.58;12.93;;;;;;;18.50;83.92;101705.88;4878348;29;20067;-69
2022/07/19 02:03:40;;;;;;;18.88;14.00;;;;;;;18.52;83.94;101696.50;4878333;29;20485;-69
2022/07/19 02:06:05;;;;;;;16.48;12.70;;;;;;;18.53;83.84;101700.00;4878287;29;20041;-69
2022/07/19 02:08:31;;;;;;;20.10;15.40;;;;;;;18.52;84.21;101696.50;4878190;29;20049;-69
2022/07/19 02:10:56;;;;;;;19.65;14.77;;;;;;;18.47;83.54;101701.75;4878332;29;20565;-69
2022/07/19 02:13:21;;;;;;;20.02;14.90;;;;;;;18.47;83.36;101692.78;4861350;29;20057;-69
2022/07/19 02:15:47;;;;;;;18.55;14.40;;;;;;;18.47;83.47;101698.19;4877958;29;20033;-69
2022/07/19 02:18:12;;;;;;;17.80;14.10;;;;;;;18.47;83.54;101700.91;4877920;29;20033;-69
2022/07/19 02:20:38;;;;;;;16.50;14.00;;;;;;;18.47;84.04;101685.53;4861219;29;20430;-69
2022/07/19 02:23:03;;;;;;;20.75;14.45;;;;;;;18.44;84.53;101690.56;4878052;29;20032;-69
2022/07/19 02:25:29;;;;;;;21.33;14.18;;;;;;;18.34;83.93;101683.84;4860988;29;20036;-69
2022/07/19 02:27:54;;;;;;;20.63;15.15;;;;;;;18.31;82.94;101689.69;4877722;29;20477;-69
2022/07/19 02:30:20;;;;;;;16.50;13.98;;;;;;;18.24;84.56;101683.56;4878074;29;20025;-69
2022/07/19 02:32:45;;;;;;;16.90;13.68;;;;;;;18.11;85.41;101662.13;4861083;29;20992;-69
2022/07/19 02:35:12;;;;;;;17.45;12.80;;;;;;;18.21;86.10;101680.47;4877756;29;20065;-69
2022/07/19 02:37:40;;;;;;;17.65;14.43;;;;;;;18.12;84.88;101669.16;4877893;29;20541;-69
2022/07/19 02:40:06;;;;;;;21.35;15.77;;;;;;;18.13;83.48;101677.03;4877837;29;20029;-69
2022/07/19 02:42:31;;;;;;;17.67;14.77;;;;;;;18.08;84.53;101666.09;4877618;29;20061;-69
2022/07/19 02:44:57;;;;;;;20.10;15.30;;;;;;;18.08;83.63;101676.91;4877632;29;20069;-69
2022/07/19 02:47:22;;;;;;;18.63;14.25;;;;;;;18.03;84.61;101671.34;4877091;29;20500;-69
2022/07/19 02:49:47;;;;;;;18.25;14.13;;;;;;;18.06;85.24;101672.78;4860687;29;20072;-69
2022/07/19 02:52:13;;;;;;;21.17;14.55;;;;;;;18.07;84.91;101671.72;4877497;29;20036;-69
2022/07/19 02:54:39;;;;;;;18.80;14.52;;;;;;;18.07;84.59;101671.72;4877395;29;20147;-69
2022/07/19 02:57:04;;;;;;;17.50;14.00;;;;;;;18.07;84.90;101674.41;4877290;29;20243;-69
2022/07/19 02:59:29;;;;;;;17.70;15.05;;;;;;;18.03;84.82;101673.22;4876876;29;20053;-69
2022/07/19 03:01:55;;;;;;;19.90;14.75;;;;;;;18.00;85.42;101676.34;4877021;29;20039;-69
2022/07/19 03:04:20;;;;;;;16.58;14.07;;;;;;;17.95;85.07;101672.47;4876587;29;20408;-69
2022/07/19 03:06:45;;;;;;;18.13;14.90;;;;;;;17.89;85.31;101665.28;4876703;29;20033;-69
2022/07/19 03:09:11;;;;;;;18.50;14.00;;;;;;;17.86;85.00;101667.59;4894331;29;20056;-69
2022/07/19 03:11:37;;;;;;;19.83;15.05;;;;;;;17.76;85.53;101662.69;4895935;29;20044;-69
2022/07/19 03:14:02;;;;;;;18.75;15.85;;;;;;;17.79;85.03;101661.41;4895428;29;20068;-69
2022/07/19 03:16:28;;;;;;;19.02;15.35;;;;;;;17.71;85.07;101657.13;4895686;29;20097;-69
2022/07/19 03:18:53;;;;;;;16.85;13.50;;;;;;;17.70;85.80;101658.19;4895550;29;20039;-69
2022/07/19 03:21:18;;;;;;;19.75;13.40;;;;;;;17.65;84.75;101644.56;4895403;29;20029;-69
2022/07/19 03:23:44;;;;;;;19.42;15.07;;;;;;;17.71;84.75;101655.28;4895746;29;20223;-69
2022/07/19 03:26:09;;;;;;;18.38;15.10;;;;;;;17.71;84.72;101649.88;4895694;29;20040;-69
2022/07/19 03:28:34;;;;;;;19.60;15.23;;;;;;;17.71;84.07;101646.34;4878815;29;20068;-69
2022/07/19 03:31:00;;;;;;;19.98;15.60;;;;;;;17.71;84.39;101651.75;4895441;29;20047;-69
2022/07/19 03:33:26;;;;;;;18.75;15.63;;;;;;;17.72;84.61;101650.72;4895395;29;20084;-69
2022/07/19 03:35:51;;;;;;;22.63;16.58;;;;;;;17.67;83.33;101640.59;4895233;29;20033;-69
2022/07/19 03:38:16;;;;;;;25.58;15.70;;;;;;;17.72;83.08;101653.41;4895439;29;20059;-69
2022/07/19 03:40:43;;;;;;;18.08;15.00;;;;;;;17.61;84.43;101633.41;4895336;29;20064;-69
2022/07/19 03:43:08;;;;;;;21.10;17.95;;;;;;;17.63;84.08;101658.28;4895397;29;20441;-68
2022/07/19 03:45:33;;;;;;;20.50;16.30;;;;;;;17.55;84.19;101647.75;4895925;29;20083;-69
2022/07/19 03:48:00;;;;;;;20.70;15.80;;;;;;;17.52;84.74;101640.94;4895293;29;20063;-69
2022/07/19 03:50:25;;;;;;;20.17;15.88;;;;;;;17.52;84.94;101651.72;4894283;29;20037;-69
2022/07/19 03:52:50;;;;;;;20.25;15.57;;;;;;;17.53;85.52;101649.88;4894735;29;20091;-69
2022/07/19 03:55:16;;;;;;;23.25;15.52;;;;;;;17.54;85.76;101651.53;4894759;29;20127;-69
2022/07/19 03:57:41;;;;;;;19.70;15.07;;;;;;;17.52;86.43;101657.13;4894904;29;20119;-69
2022/07/19 04:00:07;;;;;;;19.25;16.42;;;;;;;17.50;85.72;101655.69;4894872;29;20045;-69
2022/07/19 04:02:32;;;;;;;19.52;15.20;;;;;;;17.49;85.82;101656.75;4894875;29;20036;-69
2022/07/19 04:04:57;;;;;;;20.67;17.42;;;;;;;17.47;85.98;101654.28;4894630;29;20108;-69
2022/07/19 04:07:23;;;;;;;21.27;16.63;;;;;;;17.48;85.58;101660.50;4894236;29;20507;-69
2022/07/19 04:09:48;;;;;;;19.10;16.02;;;;;;;17.53;85.80;101660.66;4894884;29;20025;-69
2022/07/19 04:12:13;;;;;;;21.23;16.25;;;;;;;17.58;85.49;101668.06;4894580;29;20119;-69
2022/07/19 04:14:39;;;;;;;20.90;16.40;;;;;;;17.61;85.42;101659.56;4894756;29;20119;-69
2022/07/19 04:17:04;;;;;;;24.08;17.52;;;;;;;17.64;84.87;101664.50;4894328;29;20028;-69
2022/07/19 04:19:31;;;;;;;24.08;18.10;;;;;;;17.62;85.34;101651.22;4894809;29;20024;-69
2022/07/19 04:21:56;;;;;;;18.83;16.05;;;;;;;17.66;86.26;101657.00;4894548;29;20123;-69
2022/07/19 04:24:22;;;;;;;20.67;16.48;;;;;;;17.66;86.31;101654.31;4894747;29;20551;-69
2022/07/19 04:26:47;;;;;;;21.33;16.92;;;;;;;17.67;85.55;101658.66;4894467;29;20374;-69
2022/07/19 04:29:12;;;;;;;20.58;16.55;;;;;;;17.68;85.83;101654.91;4894673;29;20195;-69
2022/07/19 04:31:38;;;;;;;20.88;17.40;;;;;;;17.73;85.73;101658.56;4894625;29;20028;-69
2022/07/19 04:34:03;;;;;;;19.05;16.13;;;;;;;17.74;85.37;101659.41;4894462;29;20493;-69
2022/07/19 04:36:28;;;;;;;22.25;17.40;;;;;;;17.70;85.43;101647.41;4894608;29;20060;-69
2022/07/19 04:38:54;;;;;;;22.42;17.83;;;;;;;17.81;85.54;101654.78;4894189;29;20388;-69
2022/07/19 04:41:19;;;;;;;22.05;17.73;;;;;;;17.84;85.30;101646.25;4894302;29;20040;-69
2022/07/19 04:43:44;;;;;;;26.52;17.88;;;;;;;17.95;85.12;101653.59;4894077;29;20096;-69
2022/07/19 04:46:10;;;;;;;23.50;17.45;;;;;;;18.03;85.40;101659.72;4877082;29;20076;-69
2022/07/19 04:48:35;;;;;;;20.58;16.15;;;;;;;18.13;84.79;101662.69;4894218;29;20124;-69
2022/07/19 04:51:00;;;;;;;23.60;17.75;;;;;;;18.22;84.08;101663.22;4877073;29;20370;-69
2022/07/19 04:53:26;;;;;;;23.33;18.23;;;;;;;18.30;84.36;101668.31;4894127;29;20044;-68
2022/07/19 04:55:52;;;;;;;23.85;19.35;;;;;;;18.37;84.56;101656.38;4894071;29;20047;-69
2022/07/19 04:58:17;;;;;;;21.00;17.20;;;;;;;18.45;83.89;101657.94;4877450;29;20631;-69
2022/07/19 05:00:42;;;;;;;25.88;19.65;;;;;;;18.55;83.90;101660.09;4893972;29;20509;-69
2022/07/19 05:03:08;;;;;;;24.83;19.33;;;;;;;18.65;84.43;101660.31;4893767;29;20469;-69
2022/07/19 05:05:33;;;;;;;26.75;19.98;;;;;;;18.75;83.60;101659.81;4894029;29;20040;-69
2022/07/19 05:07:58;;;;;;;25.88;19.80;;;;;;;18.78;84.57;101649.34;4893890;29;20060;-69
2022/07/19 05:10:24;;;;;;;24.70;19.25;;;;;;;18.93;82.78;101648.09;4894234;29;20118;-69
2022/07/19 05:12:49;;;;;;;24.83;19.65;;;;;;;19.05;81.78;101654.34;4893984;29;20491;-69
2022/07/19 05:15:15;;;;;;;25.77;20.73;;;;;;;19.11;80.45;101655.28;4893995;29;20104;-69
2022/07/19 05:17:40;;;;;;;30.80;21.83;;;;;;;19.21;79.93;101663.66;4893716;29;20139;-69
2022/07/19 05:20:06;;;;;;;27.15;20.60;;;;;;;19.37;79.99;101657.53;4894083;29;20024;-69
2022/07/19 05:22:32;;;;;;;25.15;22.42;;;;;;;19.51;79.73;101666.22;4893760;29;20072;-69
2022/07/19 05:24:58;;;;;;;26.15;20.63;;;;;;;19.66;79.01;101657.63;4893891;29;20104;-69
2022/07/19 05:27:24;;;;;;;24.77;20.95;;;;;;;19.77;77.27;101659.50;4893850;29;20028;-69
2022/07/19 05:29:49;;;;;;;34.50;21.08;;;;;;;19.84;77.04;101665.63;4897060;29;20613;-69
2022/07/19 05:32:15;;;;;;;27.83;21.90;;;;;;;19.90;76.64;101659.25;4897667;29;20040;-69
2022/07/19 05:34:40;;;;;;;25.55;21.77;;;;;;;19.99;76.87;101665.13;4897325;29;20409;-69
2022/07/19 05:37:05;;;;;;;28.88;21.83;;;;;;;20.05;76.70;101666.88;4897723;29;20477;-69
2022/07/19 05:39:31;;;;;;;30.23;22.92;;;;;;;20.09;76.54;101662.59;4897148;29;20043;-69
2022/07/19 05:41:56;;;;;;;27.10;20.85;;;;;;;20.14;75.81;101651.06;4897425;29;20039;-69
2022/07/19 05:44:22;;;;;;;25.27;21.35;;;;;;;20.28;75.77;101665.97;4897341;29;20028;-69
2022/07/19 05:46:48;;;;;;;34.70;21.23;;;;;;;20.35;76.27;101661.22;4897296;29;20057;-68
2022/07/19 05:49:13;;;;;;;26.92;21.38;;;;;;;20.42;75.80;101669.22;4897195;29;20842;-69
2022/07/19 05:51:39;;;;;;;25.48;21.23;;;;;;;20.51;75.42;101656.09;4897067;29;20096;-71
2022/07/19 05:54:05;;;;;;;26.65;21.33;;;;;;;20.60;75.71;101670.13;4896863;29;20033;-71
2022/07/19 05:56:31;;;;;;;26.38;21.38;;;;;;;20.67;75.29;101660.75;4897255;29;20056;-71
2022/07/19 05:58:57;;;;;;;22.63;20.23;;;;;;;20.70;75.55;101659.47;4896946;29;20083;-71
2022/07/19 06:01:22;;;;;;;26.65;22.35;;;;;;;20.73;75.58;101646.22;4896929;29;20042;-71
2022/07/19 06:03:54;;;;;;;26.60;21.92;;;;;;;20.89;75.03;101663.56;4896990;29;20032;-71
2022/07/19 06:06:19;;;;;;;;;;;;;;;21.00;75.23;101661.84;4897390;29;20025;-72
2022/07/19 06:08:45;;;;;;;29.95;23.08;;;;;;;21.06;72.53;101657.31;4879795;29;20347;-72
2022/07/19 06:11:11;;;;;;;26.33;22.33;;;;;;;21.14;71.74;101662.31;4897261;29;20396;-72
2022/07/19 06:13:37;;;;;;;27.25;24.40;;;;;;;21.21;70.25;101655.66;4897883;29;20041;-72
2022/07/19 06:16:03;;;;;;;27.73;22.23;;;;;;;21.31;69.63;101665.84;4896854;29;20089;-72
2022/07/19 06:18:34;;;;;;;25.55;21.05;;;;;;;21.39;68.70;101665.47;4896526;29;20106;-71
2022/07/19 06:21:11;;;;;;;25.75;21.70;;;;;;;21.45;69.01;101664.47;4896740;29;20037;-72
2022/07/19 06:23:37;;;;;;;22.15;18.95;;;;;;;21.55;68.38;101677.34;4896859;29;20035;-72
2022/07/19 06:26:03;;;;;;;22.73;17.98;;;;;;;21.59;67.04;101672.28;4896643;29;20040;-69
2022/07/19 06:28:29;;;;;;;19.85;16.27;;;;;;;21.61;67.32;101670.09;4896750;29;20131;-69
2022/07/19 06:30:54;;;;;;;24.77;15.65;;;;;;;21.72;67.38;101679.22;4896197;29;20575;-70
2022/07/19 06:33:20;;;;;;;22.08;15.13;;;;;;;21.77;66.94;101669.25;4896302;29;20095;-69
2022/07/19 06:35:45;;;;;;;20.52;15.20;;;;;;;21.88;65.76;101668.31;4896074;29;20059;-70
2022/07/19 06:38:10;;;;;;;21.25;15.98;;;;;;;22.01;66.54;101677.16;4896325;29;20034;-70
2022/07/19 06:40:36;;;;;;;20.40;14.90;;;;;;;22.07;66.61;101670.69;4895043;29;20029;-69
2022/07/19 06:43:01;;;;;;;22.30;15.15;;;;;;;22.12;65.94;101670.78;4896371;29;20036;-70
2022/07/19 06:45:26;;;;;;;21.30;15.45;;;;;;;22.21;65.84;101668.44;4896333;29;20078;-70
2022/07/19 06:47:52;;;;;;;21.27;15.73;;;;;;;22.27;66.89;101664.72;4896260;29;20783;-71
2022/07/19 06:50:18;;;;;;;27.15;15.68;;;;;;;22.35;67.05;101674.28;4896023;29;20255;-70
2022/07/19 06:52:44;;;;;;;20.85;16.42;;;;;;;22.42;66.62;101670.28;4896233;29;20024;-70
2022/07/19 06:55:09;;;;;;;24.52;20.02;;;;;;;22.48;66.92;101666.56;4895655;29;20039;-70
2022/07/19 06:57:35;;;;;;;20.52;15.30;;;;;;;22.54;64.55;101662.81;4895859;29;20033;-70
2022/07/19 07:00:01;;;;;;;19.63;14.25;;;;;;;22.65;63.64;101671.91;4895988;29;20097;-71
2022/07/19 07:02:26;;;;;;;23.63;16.75;;;;;;;22.72;64.18;101658.91;4896021;29;20092;-71
2022/07/19 07:04:51;;;;;;;22.90;14.80;;;;;;;22.82;65.41;101658.19;4895971;29;20040;-71
2022/07/19 07:07:17;;;;;;;21.63;17.42;;;;;;;22.90;66.45;101665.06;4895831;29;20076;-71
2022/07/19 07:09:42;;;;;;;24.35;18.15;;;;;;;23.01;67.42;101660.53;4896008;29;20041;-71
2022/07/19 07:12:08;;;;;;;23.65;16.70;;;;;;;23.08;65.97;101663.84;4895759;29;20040;-71
2022/07/19 07:14:34;;;;;;;22.23;16.08;;;;;;;23.18;64.68;101667.44;4879060;29;20056;-71
2022/07/19 07:16:59;;;;;;;18.95;15.65;;;;;;;23.26;63.83;101659.88;4895828;29;20111;-70
2022/07/19 07:19:25;;;;;;;20.02;15.55;;;;;;;23.33;64.85;101657.78;4895914;29;20047;-70
2022/07/19 07:21:50;;;;;;;28.65;13.38;;;;;;;23.38;63.32;101657.81;4895662;29;20036;-71
2022/07/19 07:24:15;;;;;;;20.40;13.75;;;;;;;23.50;62.98;101655.72;4895678;29;20496;-71
2022/07/19 07:26:41;;;;;;;23.70;16.52;;;;;;;23.54;61.52;101656.00;4878772;29;20168;-71
2022/07/19 07:29:06;;;;;;;20.00;14.73;;;;;;;23.67;61.50;101662.88;4895407;29;20040;-71
2022/07/19 07:31:32;;;;;;;23.45;15.40;;;;;;;23.75;60.97;101663.19;4878536;29;20096;-71
2022/07/19 07:33:57;;;;;;;22.13;14.55;;;;;;;23.83;60.72;101659.97;4895426;29;20111;-70
2022/07/19 07:36:22;;;;;;;19.80;14.10;;;;;;;23.93;61.36;101659.19;4895539;29;20024;-70
2022/07/19 07:38:48;;;;;;;18.15;14.60;;;;;;;24.01;61.80;101650.50;4895397;29;20044;-70
2022/07/19 07:41:13;;;;;;;20.90;15.30;;;;;;;24.12;60.77;101650.53;4895253;29;20037;-70
2022/07/19 07:43:38;;;;;;;24.50;15.45;;;;;;;24.24;60.68;101649.22;4895203;29;20123;-70
2022/07/19 07:46:04;;;;;;;24.75;16.10;;;;;;;24.32;60.98;101642.41;4877911;29;20037;-70
2022/07/19 07:48:29;;;;;;;18.92;14.65;;;;;;;24.38;61.27;101646.78;4894825;29;20121;-70
2022/07/19 07:50:56;;;;;;;20.02;14.00;;;;;;;24.47;59.83;101644.34;4877586;29;20048;-70
2022/07/19 07:53:21;;;;;;;16.38;12.18;;;;;;;24.58;59.67;101642.50;4895216;29;20043;-71
2022/07/19 07:55:46;;;;;;;16.60;11.98;;;;;;;24.64;59.51;101630.47;4894874;29;20032;-70
2022/07/19 07:58:12;;;;;;;21.67;13.77;;;;;;;24.72;58.70;101627.22;4894205;29;20036;-71
2022/07/19 08:00:40;;;;;;;17.70;12.55;;;;;;;24.88;58.42;101639.75;4894881;29;20036;-70
2022/07/19 08:03:06;;;;;;;16.15;12.15;;;;;;;24.99;57.67;101626.09;4894879;29;20104;-70
2022/07/19 08:05:31;;;;;;;18.50;11.82;;;;;;;25.11;58.34;101630.19;4894939;29;20425;-70
2022/07/19 08:07:58;;;;;;;17.35;11.85;;;;;;;25.28;57.15;101634.53;4894746;29;20060;-70
2022/07/19 08:10:25;;;;;;;19.17;10.85;;;;;;;25.41;57.45;101624.94;4894417;29;20108;-71
2022/07/19 08:12:52;;;;;;;17.63;10.40;;;;;;;25.59;57.50;101627.88;4894378;29;20060;-70
2022/07/19 08:15:17;;;;;;;17.27;10.35;;;;;;;26.37;56.14;101625.63;4894851;29;20579;-70
2022/07/19 08:17:42;;;;;;;15.98;9.07;;;;;;;28.15;49.85;101624.88;4894707;29;20040;-70
2022/07/19 08:20:08;;;;;;;17.13;11.73;;;;;;;30.56;45.85;101626.59;4877419;29;20477;-70
2022/07/19 08:22:34;;;;;;;15.52;12.10;;;;;;;32.52;40.98;101621.56;4894144;29;20115;-71
2022/07/19 08:24:59;;;;;;;18.80;11.32;;;;;;;34.12;38.12;101619.41;4893639;29;20405;-71
2022/07/19 08:27:24;;;;;;;16.40;10.90;;;;;;;35.36;35.19;101627.72;4894504;29;20044;-71
2022/07/19 08:29:50;;;;;;;15.85;10.85;;;;;;;36.25;33.35;101626.91;4894299;29;20137;-71
2022/07/19 08:32:15;;;;;;;14.18;9.82;;;;;;;36.91;31.47;101625.50;4894609;29;20071;-71
2022/07/19 08:34:40;;;;;;;15.85;9.35;;;;;;;37.62;30.09;101618.13;4894423;29;20048;-71
2022/07/19 08:37:06;;;;;;;21.92;7.85;;;;;;;38.33;29.52;101612.44;4894497;29;20028;-71
2022/07/19 08:39:31;;;;;;;16.10;9.63;;;;;;;38.79;28.76;101607.75;4894730;29;20028;-71
2022/07/19 08:41:57;;;;;;;14.80;7.43;;;;;;;39.49;26.97;101610.50;4894480;29;20048;-71
2022/07/19 08:44:22;;;;;;;14.90;6.72;;;;;;;39.65;26.40;101613.91;4894323;29;20492;-71
2022/07/19 08:46:48;;;;;;;14.82;6.75;;;;;;;39.86;26.44;101610.63;4894208;29;20073;-71
2022/07/19 08:49:15;;;;;;;14.25;7.20;;;;;;;40.14;25.82;101606.53;4877660;29;20115;-71
2022/07/19 08:51:41;;;;;;;10.20;6.70;;;;;;;40.41;25.90;101610.88;4894183;29;20044;-71
2022/07/19 08:54:07;;;;;;;11.52;6.75;;;;;;;40.48;25.39;101598.94;4894206;29;20564;-71
2022/07/19 08:59:16;;;;;;;11.65;6.93;;;;;;;40.85;23.94;101603.69;4893563;29;20056;-70
2022/07/19 09:01:41;;;;;;;10.40;6.53;;;;;;;40.96;23.92;101605.41;4894130;29;20040;-71
2022/07/19 09:04:17;;;;;;;12.45;6.50;;;;;;;41.03;24.16;101601.03;4893584;29;20037;-71
2022/07/19 09:06:45;;;;;;;7.90;5.63;;;;;;;40.55;23.95;101601.03;4894000;29;20420;-71
2022/07/19 09:09:14;;;;;;;11.45;5.20;;;;;;;38.93;27.05;101592.47;4893875;29;20060;-71
2022/07/19 09:11:50;;;;;;;9.45;5.10;;;;;;;37.24;28.50;101597.34;4894120;29;20047;-72
2022/07/19 09:14:30;;;;;;;8.52;5.38;;;;;;;35.92;31.50;101591.81;4877078;29;20036;-71
2022/07/19 09:17:06;;;;;;;7.65;5.25;;;;;;;34.87;32.21;101595.22;4893716;29;20029;-71
2022/07/19 09:19:36;;;;;;;6.65;5.65;;;;;;;33.99;32.59;101579.75;4894204;29;20036;-71
2022/07/19 09:22:04;;;;;;;9.85;5.53;;;;;;;33.39;34.97;101584.53;4893593;29;20480;-71
2022/07/19 09:24:32;;;;;;;9.13;5.10;;;;;;;32.90;36.52;101579.38;4893809;29;20072;-71
2022/07/19 09:27:06;;;;;;;6.88;5.40;;;;;;;32.52;35.72;101580.16;4893788;29;20072;-71
2022/07/19 09:29:33;;;;;;;11.52;6.03;;;;;;;32.22;36.26;101581.94;4893958;29;20123;-71
2022/07/19 09:31:59;;;;;;;11.70;5.03;;;;;;;31.98;36.71;101581.63;4893365;29;20036;-71
2022/07/19 09:34:51;;;;;;;11.75;5.78;;;;;;;31.81;38.01;101583.22;4893919;29;20063;-70
2022/07/19 09:37:19;;;;;;;13.68;4.68;;;;;;;31.69;38.77;101574.75;4890977;29;20071;-70
2022/07/19 09:39:50;;;;;;;8.80;5.72;;;;;;;31.66;36.21;101575.41;4877488;29;20070;-71
2022/07/19 09:42:21;;;;;;;8.25;5.40;;;;;;;31.62;36.44;101572.50;4893644;29;20044;-70
2022/07/19 09:44:57;;;;;;;9.10;5.10;;;;;;;31.63;38.14;101568.59;4893865;29;20381;-71
2022/07/19 09:47:34;;;;;;;10.32;4.85;;;;;;;31.69;37.11;101568.44;4893634;29;20454;-71
2022/07/19 09:50:00;;;;;;;12.77;5.07;;;;;;;31.73;35.98;101577.69;4893788;29;20036;-70
2022/07/19 09:52:26;;;;;;;10.48;5.80;;;;;;;31.76;37.27;101566.81;4893292;29;20032;-71
2022/07/19 09:54:52;;;;;;;8.07;4.18;;;;;;;31.78;35.63;101567.31;4893756;29;20093;-71
2022/07/19 09:57:23;;;;;;;23.65;5.25;;;;;;;31.88;37.15;101569.72;4893733;29;20095;-71
2022/07/19 09:59:53;;;;;;;8.23;4.68;;;;;;;31.97;37.41;101572.53;4893634;29;20051;-71
2022/07/19 10:02:21;;;;;;;7.55;4.63;;;;;;;32.01;35.79;101573.50;4893083;29;20052;-70
2022/07/19 10:04:48;;;;;;;10.77;5.20;;;;;;;32.13;35.86;101570.09;4893433;29;20040;-71
2022/07/19 10:07:16;;;;;;;11.05;5.18;;;;;;;32.15;35.31;101569.75;4893344;29;20085;-71
2022/07/19 10:09:41;;;;;;;6.78;4.90;;;;;;;32.22;34.80;101564.56;4893133;29;20649;-72
2022/07/19 10:12:07;;;;;;;7.95;4.22;;;;;;;32.19;33.58;101555.00;4892870;29;20043;-70
2022/07/19 10:14:33;;;;;;;7.13;4.28;;;;;;;32.30;33.92;101555.47;4894204;29;20036;-71
2022/07/19 10:17:05;;;;;;;9.30;3.90;;;;;;;32.39;34.27;101561.00;4896868;29;20035;-71
2022/07/19 10:19:45;;;;;;;12.07;5.65;;;;;;;32.47;35.41;101558.22;4896922;29;20036;-72
2022/07/19 10:22:13;;;;;;;9.45;4.40;;;;;;;32.49;33.97;101563.44;4896365;29;20038;-71
2022/07/19 10:25:14;;;;;;;7.25;4.47;;;;;;;32.53;37.63;101551.38;4896884;29;20100;-71
2022/07/19 10:27:42;;;;;;;9.15;5.00;;;;;;;32.53;34.80;101545.03;4896305;29;20036;-71
2022/07/19 10:30:10;;;;;;;6.07;4.55;;;;;;;32.60;35.04;101550.88;4896554;29;20473;-70
2022/07/19 10:32:37;;;;;;;7.40;4.95;;;;;;;32.65;34.77;101547.94;4896304;29;20040;-70
2022/07/19 10:35:17;;;;;;;5.07;4.60;;;;;;;32.74;35.33;101548.72;4896537;29;20032;-71
2022/07/19 10:37:44;;;;;;;7.72;4.45;;;;;;;32.78;37.58;101548.03;4896580;29;20037;-70
2022/07/19 10:40:09;;;;;;;7.82;5.00;;;;;;;32.80;34.44;101543.81;4896216;29;20119;-70
2022/07/19 10:42:35;;;;;;;8.40;5.25;;;;;;;32.84;33.19;101544.78;4896482;29;20119;-70
2022/07/19 10:45:08;;;;;;;7.28;4.18;;;;;;;32.90;34.60;101534.34;4896222;29;20044;-71
2022/07/19 10:47:39;;;;;;;11.77;4.53;;;;;;;33.00;32.02;101530.41;4896292;29;20222;-70
2022/07/19 10:50:07;;;;;;;8.00;4.10;;;;;;;33.17;30.84;101533.94;4896184;29;20046;-70
2022/07/19 10:52:36;;;;;;;10.48;4.45;;;;;;;33.31;29.81;101521.81;4896372;29;20039;-70
2022/07/19 10:55:20;;;;;;;9.00;4.30;;;;;;;33.42;29.55;101531.31;4896157;29;20489;-70
2022/07/19 10:57:48;;;;;;;10.38;4.15;;;;;;;33.52;29.38;101519.06;4895792;29;20036;-71
2022/07/19 11:00:19;;;;;;;7.63;4.30;;;;;;;33.64;29.92;101521.09;4896004;29;20115;-70
2022/07/19 11:02:46;;;;;;;8.20;4.30;;;;;;;33.74;30.90;101510.44;4895544;29;20032;-70
2022/07/19 11:05:25;;;;;;;6.18;4.32;;;;;;;33.86;32.13;101512.47;4895534;29;20039;-70
2022/07/19 11:07:53;;;;;;;7.32;4.43;;;;;;;34.00;29.23;101523.22;4895860;29;20056;-71
2022/07/19 11:10:30;;;;;;;10.38;3.90;;;;;;;34.07;30.03;101517.19;4895855;29;20036;-70
2022/07/19 11:12:57;;;;;;;6.50;4.10;;;;;;;34.09;27.64;101501.03;4895892;29;20127;-70